Time;durP1;ratioP1;P1;durP2;ratioP2;P2;SDS_P1;SDS_P2;PMS_P1;PMS_P2;Temp;Humidity;BMP_temperature;BMP_pressure;BME280_temperature;BME280_humidity;BME280_pressure;Samples;Min_cycle;Max_cycle;Signal;HPM_P1;HPM_P2
2022/10/18 00:00:04;;;;;;;;;14.67;14.00;;;;;19.37;100.00;102123.56;5055815;28;45416;-72
2022/10/18 00:02:29;;;;;;;;;16.33;16.33;;;;;19.36;100.00;102121.78;5055113;28;45684;-73
2022/10/18 00:04:54;;;;;;;;;15.00;15.00;;;;;19.38;100.00;102121.78;5054906;28;51006;-72
2022/10/18 00:07:20;;;;;;;;;15.33;14.33;;;;;19.40;100.00;102129.81;5054499;28;63726;-74
2022/10/18 00:09:45;;;;;;;;;16.00;15.00;;;;;19.38;100.00;102122.66;5054860;28;51750;-72
2022/10/18 00:12:10;;;;;;;;;14.00;14.00;;;;;19.38;100.00;102122.66;5037041;28;60976;-74
2022/10/18 00:14:36;;;;;;;;;15.33;14.00;;;;;19.38;100.00;102124.44;5054059;28;66118;-73
2022/10/18 00:17:01;;;;;;;;;18.67;15.33;;;;;19.40;100.00;102124.47;5036912;28;45324;-73
2022/10/18 00:19:26;;;;;;;;;15.33;15.33;;;;;19.38;100.00;102121.78;5054469;28;45378;-72
2022/10/18 00:21:52;;;;;;;;;14.00;14.00;;;;;19.40;100.00;102136.06;5055121;28;61155;-74
2022/10/18 00:24:17;;;;;;;;;14.00;14.00;;;;;19.42;100.00;102138.72;5054675;28;62950;-72
2022/10/18 00:26:43;;;;;;;;;19.33;15.00;;;;;19.43;100.00;102145.84;5054871;28;45493;-72
2022/10/18 00:29:12;;;;;;;;;11.00;11.00;;;;;19.42;100.00;102133.38;5054741;28;45754;-73
2022/10/18 00:31:37;;;;;;;;;13.67;13.67;;;;;19.42;100.00;102136.03;5055015;28;45421;-72
2022/10/18 00:34:05;;;;;;;;;19.33;17.67;;;;;19.43;100.00;102146.75;5055550;28;54214;-73
2022/10/18 00:36:33;;;;;;;;;18.00;15.67;;;;;19.43;100.00;102140.50;5058301;28;45497;-72
2022/10/18 00:38:59;;;;;;;;;18.67;16.33;;;;;19.42;100.00;102136.03;5058764;28;45482;-72
2022/10/18 00:41:27;;;;;;;;;18.33;16.67;;;;;19.43;100.00;102136.03;5040933;28;45756;-74
2022/10/18 00:44:06;;;;;;;;;20.67;18.00;;;;;19.42;100.00;102139.63;5058437;28;45682;-73
2022/10/18 00:46:38;;;;;;;;;15.67;15.67;;;;;19.43;100.00;102145.84;5058097;28;46358;-72
2022/10/18 00:49:07;;;;;;;;;16.00;13.00;;;;;19.43;100.00;102154.78;5057983;28;45449;-72
2022/10/18 00:51:40;;;;;;;;;17.67;15.00;;;;;19.40;100.00;102145.88;5057998;28;45377;-72
2022/10/18 00:54:05;;;;;;;;;17.00;15.33;;;;;19.42;100.00;102147.66;5052725;28;45757;-72
2022/10/18 00:56:31;;;;;;;;;14.00;13.67;;;;;19.40;100.00;102148.56;5056920;28;64983;-72
2022/10/18 00:58:57;;;;;;;;;16.33;13.33;;;;;19.40;100.00;102146.78;5039698;28;64440;-72
2022/10/18 01:01:22;;;;;;;;;21.67;16.00;;;;;19.42;100.00;102154.78;5057648;28;45434;-72
2022/10/18 01:03:48;;;;;;;;;14.67;13.33;;;;;19.40;100.00;102148.56;5057206;28;73073;-73
2022/10/18 01:06:13;;;;;;;;;16.33;16.33;;;;;19.42;100.00;102154.78;5038162;28;45511;-73
2022/10/18 01:08:44;;;;;;;;;15.67;14.00;;;;;19.40;100.00;102156.59;5057041;28;59737;-72
2022/10/18 01:11:40;;;;;;;;;16.67;16.67;;;;;19.41;100.00;102148.56;5057852;28;45501;-72
2022/10/18 01:14:38;;;;;;;;;18.00;15.67;;;;;19.41;100.00;102161.94;5055490;28;46004;-72
2022/10/18 01:17:13;;;;;;;;;16.67;14.67;;;;;19.41;100.00;102167.31;5041366;28;45543;-72
2022/10/18 01:20:23;;;;;;;;;13.67;13.67;;;;;19.40;100.00;102170.00;5039369;28;45544;-72
2022/10/18 01:23:07;;;;;;;;;13.67;12.67;;;;;19.40;100.00;102167.31;5036946;28;45474;-72
2022/10/18 01:25:56;;;;;;;;;15.00;15.00;;;;;19.40;100.00;102161.97;5057249;28;46443;-73
2022/10/18 01:28:46;;;;;;;;;14.00;14.00;;;;;19.38;100.00;102160.16;5036378;28;45468;-73
2022/10/18 01:31:45;;;;;;;;;15.67;15.67;;;;;19.37;100.00;102163.72;5057391;28;45506;-72
2022/10/18 01:34:14;;;;;;;;;17.67;14.67;;;;;19.37;100.00;102166.41;5045459;28;45424;-72
2022/10/18 01:36:43;;;;;;;;;15.00;14.33;;;;;19.36;100.00;102172.69;5056941;28;45807;-72
2022/10/18 01:39:12;;;;;;;;;18.67;17.67;;;;;19.36;100.00;102167.31;5039454;28;45368;-71
2022/10/18 01:41:40;;;;;;;;;14.67;14.67;;;;;19.34;100.00;102161.09;5035465;28;45307;-72
2022/10/18 01:44:10;;;;;;;;;15.00;14.33;;;;;19.33;100.00;102167.34;5039995;28;45560;-72
2022/10/18 01:46:36;;;;;;;;;17.00;16.00;;;;;19.34;100.00;102165.56;5039418;28;45381;-72
2022/10/18 01:49:03;;;;;;;;;18.00;15.00;;;;;19.32;100.00;102153.94;5037696;28;69164;-71
2022/10/18 01:51:30;;;;;;;;;19.33;16.33;;;;;19.31;100.00;102154.84;5056087;28;62351;-72
2022/10/18 01:53:56;;;;;;;;;17.33;14.33;;;;;19.28;100.00;102141.44;5057705;28;45315;-72
2022/10/18 01:56:26;;;;;;;;;16.33;15.33;;;;;19.26;100.00;102140.56;5057108;28;46311;-71
2022/10/18 01:59:25;;;;;;;;;16.00;16.00;;;;;19.22;100.00;102157.53;5039604;28;45410;-72
2022/10/18 02:02:21;;;;;;;;;17.00;15.67;;;;;19.16;100.00;102153.09;5057066;28;45509;-72
2022/10/18 02:05:00;;;;;;;;;14.00;13.00;;;;;19.14;100.00;102152.22;5056909;28;45675;-71
2022/10/18 02:07:36;;;;;;;;;16.33;14.67;;;;;19.09;100.00;102146.00;5039109;28;46434;-73
2022/10/18 02:10:09;;;;;;;;;18.00;17.33;;;;;19.07;100.00;102161.19;5038375;28;45293;-72
2022/10/18 02:12:36;;;;;;;;;12.67;12.33;;;;;19.05;100.00;102155.81;5038739;28;45413;-74
2022/10/18 02:15:04;;;;;;;;;20.00;14.67;;;;;19.03;100.00;102157.63;5035577;28;45550;-72
2022/10/18 02:17:31;;;;;;;;;18.33;17.67;;;;;18.99;100.00;102153.16;5058375;28;45503;-73
2022/10/18 02:19:58;;;;;;;;;21.00;15.00;;;;;18.97;100.00;102162.09;5056251;28;66258;-71
2022/10/18 02:22:28;;;;;;;;;15.67;15.00;;;;;18.94;100.00;102159.44;5056432;28;62588;-73
2022/10/18 02:24:55;;;;;;;;;17.00;16.00;;;;;18.89;100.00;102162.09;5056609;28;45548;-72
2022/10/18 02:27:21;;;;;;;;;16.00;16.00;;;;;18.82;100.00;102163.91;5040755;28;46304;-71
2022/10/18 02:29:47;;;;;;;;;22.33;18.67;;;;;18.80;100.00;102159.44;5056589;28;45453;-75
2022/10/18 02:32:15;;;;;;;;;18.33;17.00;;;;;18.73;100.00;102153.22;5055508;28;66758;-72
2022/10/18 02:34:44;;;;;;;;;23.00;19.67;;;;;18.71;100.00;102159.47;5056439;28;46583;-73
2022/10/18 02:37:10;;;;;;;;;16.67;16.67;;;;;18.68;100.00;102164.81;5039035;28;45773;-72
2022/10/18 02:39:41;;;;;;;;;20.33;19.33;;;;;18.64;100.00;102169.22;5038634;28;45428;-72
2022/10/18 02:42:08;;;;;;;;;20.33;17.00;;;;;18.59;100.00;102161.25;5038196;28;45493;-72
2022/10/18 02:44:35;;;;;;;;;21.00;17.00;;;;;18.57;100.00;102164.78;5042160;28;45476;-74
2022/10/18 02:47:03;;;;;;;;;17.67;17.67;;;;;18.53;100.00;102169.25;5056571;28;46608;-72
2022/10/18 02:49:28;;;;;;;;;16.33;16.33;;;;;18.53;100.00;102173.72;5055639;28;45477;-72
2022/10/18 02:51:54;;;;;;;;;22.67;17.67;;;;;18.55;100.00;102180.84;5056791;28;45317;-72
2022/10/18 02:54:19;;;;;;;;;19.00;17.67;;;;;18.54;100.00;102187.09;5056139;28;54738;-72
2022/10/18 02:56:44;;;;;;;;;21.00;20.00;;;;;18.55;100.00;102182.66;5055863;28;45375;-72
2022/10/18 02:59:10;;;;;;;;;17.33;17.00;;;;;18.56;100.00;102185.31;5054467;28;68934;-74
2022/10/18 03:01:36;;;;;;;;;19.33;18.00;;;;;18.54;100.00;102181.75;5055833;28;45513;-73
2022/10/18 03:04:01;;;;;;;;;19.33;17.00;;;;;18.55;100.00;102182.66;5056854;28;45288;-72
2022/10/18 03:06:27;;;;;;;;;20.33;17.00;;;;;18.55;100.00;102183.53;5055954;28;47291;-72
2022/10/18 03:08:52;;;;;;;;;18.33;18.33;;;;;18.58;100.00;102185.28;5037498;28;45543;-72
2022/10/18 03:11:18;;;;;;;;;15.33;15.33;;;;;18.56;100.00;102181.75;5055499;28;51991;-74
2022/10/18 03:13:43;;;;;;;;;20.33;20.00;;;;;18.55;100.00;102188.88;5055422;28;45556;-71
2022/10/18 03:16:09;;;;;;;;;18.33;18.00;;;;;18.55;100.00;102191.56;5056343;28;45399;-72
2022/10/18 03:18:34;;;;;;;;;16.33;15.00;;;;;18.54;100.00;102192.47;5054560;28;68402;-74
2022/10/18 03:21:04;;;;;;;;;17.67;16.00;;;;;18.53;100.00;102197.78;5055707;28;63186;-72
2022/10/18 03:23:29;;;;;;;;;21.00;16.67;;;;;18.48;100.00;102200.47;5056369;28;45558;-72
2022/10/18 03:25:54;;;;;;;;;16.67;16.33;;;;;18.45;100.00;102203.16;5036943;28;71115;-74
2022/10/18 03:28:20;;;;;;;;;20.00;16.67;;;;;18.43;100.00;102206.69;5056061;28;45507;-72
2022/10/18 03:30:45;;;;;;;;;17.00;17.00;;;;;18.40;100.00;102210.28;5054722;28;62818;-74
2022/10/18 03:33:11;;;;;;;;;21.33;18.33;;;;;18.39;100.00;102210.28;5055343;28;45418;-74
2022/10/18 03:35:37;;;;;;;;;20.00;18.33;;;;;18.39;100.00;102215.63;5054715;28;56671;-72
2022/10/18 03:38:02;;;;;;;;;20.67;19.67;;;;;18.40;100.00;102215.63;5036536;28;63947;-72
2022/10/18 03:40:27;;;;;;;;;18.33;16.33;;;;;18.47;100.00;102219.19;5055491;28;45426;-73
2022/10/18 03:42:53;;;;;;;;;24.33;19.67;;;;;18.46;100.00;102212.94;5056029;28;45526;-74
2022/10/18 03:45:18;;;;;;;;;19.00;17.67;;;;;18.50;100.00;102221.88;5054689;28;68816;-73
2022/10/18 03:47:43;;;;;;;;;20.00;18.67;;;;;18.49;100.00;102212.97;5055516;28;64158;-72
2022/10/18 03:50:09;;;;;;;;;22.33;19.00;;;;;18.53;100.00;102224.53;5055420;28;55167;-72
2022/10/18 03:52:34;;;;;;;;;20.33;18.67;;;;;18.52;100.00;102214.72;5055407;28;62530;-72
2022/10/18 03:55:00;;;;;;;;;18.67;16.67;;;;;18.54;100.00;102215.63;5036811;28;47336;-72
2022/10/18 03:57:25;;;;;;;;;18.67;17.33;;;;;18.55;100.00;102223.66;5054256;28;57887;-72
2022/10/18 03:59:50;;;;;;;;;24.33;21.00;;;;;18.57;100.00;102215.63;5055615;28;45392;-72
2022/10/18 04:02:16;;;;;;;;;18.33;16.67;;;;;18.56;100.00;102230.78;5055500;28;45428;-72
2022/10/18 04:04:41;;;;;;;;;17.00;15.33;;;;;18.58;100.00;102233.44;5033786;28;45721;-72
2022/10/18 04:07:06;;;;;;;;;15.33;15.33;;;;;18.58;100.00;102234.34;5052930;28;45442;-72
2022/10/18 04:09:32;;;;;;;;;16.00;16.00;;;;;18.58;100.00;102230.78;5056772;28;45438;-72
2022/10/18 04:11:57;;;;;;;;;19.00;16.67;;;;;18.59;100.00;102232.59;5058317;28;56682;-72
2022/10/18 04:14:22;;;;;;;;;18.33;18.00;;;;;18.57;100.00;102240.59;5057532;28;70876;-70
2022/10/18 04:16:48;;;;;;;;;23.33;18.00;;;;;18.56;100.00;102230.78;5058622;28;45432;-72
2022/10/18 04:19:13;;;;;;;;;21.67;21.67;;;;;18.54;100.00;102237.03;5059260;28;45694;-73
2022/10/18 04:21:38;;;;;;;;;20.67;18.00;;;;;18.50;100.00;102236.13;5059118;28;45604;-72
2022/10/18 04:24:04;;;;;;;;;22.33;18.67;;;;;18.47;100.00;102230.78;5058072;28;70733;-73
2022/10/18 04:26:30;;;;;;;;;18.67;18.67;;;;;18.44;100.00;102230.78;5058107;28;45285;-72
2022/10/18 04:28:55;;;;;;;;;23.00;20.00;;;;;18.40;100.00;102226.31;5058034;28;58025;-72
2022/10/18 04:31:20;;;;;;;;;18.33;16.67;;;;;18.38;100.00;102224.56;5058031;28;58098;-72
2022/10/18 04:33:45;;;;;;;;;22.00;18.33;;;;;18.34;100.00;102229.00;5057639;28;71646;-72
2022/10/18 04:36:11;;;;;;;;;19.67;17.00;;;;;18.29;100.00;102218.28;5057085;28;66517;-72
2022/10/18 04:38:36;;;;;;;;;17.00;17.00;;;;;18.24;100.00;102220.06;5058254;28;45405;-71
2022/10/18 04:41:01;;;;;;;;;18.67;18.67;;;;;18.21;100.00;102228.06;5057944;28;58551;-72
2022/10/18 04:43:27;;;;;;;;;20.33;18.33;;;;;18.18;100.00;102238.78;5058408;28;46531;-72
2022/10/18 04:45:52;;;;;;;;;18.33;17.00;;;;;18.14;100.00;102236.09;5057998;28;45410;-72
2022/10/18 04:48:18;;;;;;;;;20.00;16.67;;;;;18.11;100.00;102236.97;5058945;28;45396;-72
2022/10/18 04:50:47;;;;;;;;;20.00;18.67;;;;;18.06;100.00;102228.94;5039813;28;45606;-72
2022/10/18 04:53:13;;;;;;;;;18.00;16.33;;;;;18.05;100.00;102234.25;5057595;28;45434;-72
2022/10/18 04:55:39;;;;;;;;;19.33;18.00;;;;;18.02;100.00;102235.16;5057462;28;45489;-73
2022/10/18 04:58:04;;;;;;;;;20.00;18.33;;;;;17.99;100.00;102242.28;5057339;28;60992;-73
2022/10/18 05:00:29;;;;;;;;;22.33;19.33;;;;;17.97;100.00;102242.28;5058051;28;53672;-74
2022/10/18 05:02:58;;;;;;;;;18.67;18.00;;;;;17.96;100.00;102243.16;5053239;28;64711;-73
2022/10/18 05:05:23;;;;;;;;;20.33;19.00;;;;;17.96;100.00;102242.28;5052890;28;45524;-73
2022/10/18 05:07:48;;;;;;;;;17.67;17.67;;;;;17.94;100.00;102244.94;5055834;28;65190;-73
2022/10/18 05:10:14;;;;;;;;;21.67;19.67;;;;;17.93;100.00;102242.25;5056914;28;60337;-73
2022/10/18 05:12:39;;;;;;;;;23.33;22.00;;;;;17.93;100.00;102259.19;5057362;28;45494;-72
2022/10/18 05:15:04;;;;;;;;;16.67;16.67;;;;;17.92;100.00;102251.16;5056740;28;45350;-72
2022/10/18 05:17:30;;;;;;;;;18.33;16.33;;;;;17.90;100.00;102248.50;5053099;28;45573;-74
2022/10/18 05:19:55;;;;;;;;;24.00;19.67;;;;;17.91;100.00;102249.38;5053345;28;45958;-72
2022/10/18 05:22:21;;;;;;;;;17.33;16.00;;;;;17.90;100.00;102259.19;5053127;28;45795;-72
2022/10/18 05:27:20;;;;;;;;;16.67;16.67;;;;;17.91;100.00;102250.28;5036701;28;45472;-72
2022/10/18 05:29:45;;;;;;;;;16.00;16.00;;;;;17.95;100.00;102254.75;5036789;28;58502;-72
2022/10/18 05:32:11;;;;;;;;;19.67;18.00;;;;;17.97;100.00;102250.28;5036324;28;60682;-72
2022/10/18 05:34:36;;;;;;;;;21.67;20.00;;;;;18.01;100.00;102246.75;5036187;28;45511;-72
2022/10/18 05:37:02;;;;;;;;;17.33;16.33;;;;;18.05;100.00;102248.53;5035413;28;45315;-72
2022/10/18 05:39:27;;;;;;;;;20.00;17.67;;;;;18.09;100.00;102243.19;5036904;28;45549;-72
2022/10/18 05:41:52;;;;;;;;;21.00;19.33;;;;;18.10;100.00;102236.94;5036574;28;45522;-72
2022/10/18 05:44:18;;;;;;;;;20.67;19.67;;;;;18.11;100.00;102247.69;5034953;28;45514;-73
2022/10/18 05:46:43;;;;;;;;;18.00;16.67;;;;;18.13;100.00;102245.88;5036435;28;45595;-72
2022/10/18 05:49:11;;;;;;;;;24.33;21.33;;;;;18.16;100.00;102256.56;5033359;28;61165;-71
2022/10/18 05:51:36;;;;;;;;;18.00;17.00;;;;;18.17;100.00;102255.69;5034185;28;46052;-71
2022/10/18 05:54:01;;;;;;;;;16.67;16.67;;;;;18.22;100.00;102261.94;5036649;28;60647;-72
2022/10/18 05:56:27;;;;;;;;;18.00;16.33;;;;;18.23;100.00;102261.06;5036484;28;64625;-72
2022/10/18 05:58:52;;;;;;;;;17.00;17.00;;;;;18.28;100.00;102266.41;5036265;28;59174;-72
2022/10/18 06:01:18;;;;;;;;;16.00;16.00;;;;;18.29;100.00;102269.09;5036929;28;52016;-71
2022/10/18 06:03:43;;;;;;;;;21.33;19.00;;;;;18.33;100.00;102270.88;5036843;28;45360;-72
2022/10/18 06:06:10;;;;;;;;;17.67;15.00;;;;;18.36;100.00;102269.97;5036401;28;59353;-73
2022/10/18 06:08:37;;;;;;;;;16.33;15.00;;;;;18.36;100.00;102269.09;5036101;28;45559;-72
2022/10/18 06:11:10;;;;;;;;;13.33;13.33;;;;;18.38;100.00;102264.66;5034626;28;45851;-72
2022/10/18 06:13:42;;;;;;;;;15.33;14.00;;;;;18.39;100.00;102264.66;5036186;28;45213;-72
2022/10/18 06:16:08;;;;;;;;;19.00;17.67;;;;;18.37;100.00;102266.41;5037049;28;45526;-72
2022/10/18 06:18:34;;;;;;;;;14.67;12.33;;;;;18.36;100.00;102266.41;5034719;28;45613;-73
2022/10/18 06:20:59;;;;;;;;;14.33;14.00;;;;;18.35;100.00;102268.22;5034073;28;70505;-71
2022/10/18 06:23:25;;;;;;;;;19.00;15.00;;;;;18.33;100.00;102272.69;5035098;28;63058;-71
2022/10/18 06:25:51;;;;;;;;;17.67;14.67;;;;;18.33;100.00;102280.69;5033235;28;45576;-73
2022/10/18 06:28:17;;;;;;;;;15.00;12.00;;;;;18.32;100.00;102282.47;5035193;28;61319;-72
2022/10/18 06:30:43;;;;;;;;;13.67;13.00;;;;;18.33;100.00;102291.38;5036105;28;46628;-72
2022/10/18 06:33:10;;;;;;;;;15.67;13.00;;;;;18.33;100.00;102289.59;5035675;28;45858;-73
2022/10/18 06:35:36;;;;;;;;;17.33;14.00;;;;;18.33;100.00;102291.38;5035954;28;45356;-73
2022/10/18 06:38:01;;;;;;;;;17.00;15.00;;;;;18.36;100.00;102298.50;5041289;28;45396;-72
2022/10/18 06:40:26;;;;;;;;;14.67;14.67;;;;;18.39;100.00;102293.19;5030988;28;45589;-72
2022/10/18 06:42:52;;;;;;;;;16.00;15.00;;;;;18.41;100.00;102300.31;5034985;28;65604;-71
2022/10/18 06:45:17;;;;;;;;;15.33;14.33;;;;;18.43;100.00;102302.97;5033670;28;62031;-71
2022/10/18 06:47:43;;;;;;;;;17.33;14.67;;;;;18.47;100.00;102299.41;5037923;28;45632;-71
2022/10/18 06:50:10;;;;;;;;;15.67;15.00;;;;;18.50;100.00;102300.34;5034818;28;45490;-71
2022/10/18 06:52:35;;;;;;;;;12.33;12.00;;;;;18.54;100.00;102303.91;5035379;28;45858;-72
2022/10/18 06:55:00;;;;;;;;;12.00;12.00;;;;;18.57;100.00;102307.47;5034482;28;56079;-72
2022/10/18 06:57:26;;;;;;;;;15.00;13.00;;;;;18.59;100.00;102299.47;5032244;28;64160;-72
2022/10/18 06:59:51;;;;;;;;;15.33;13.67;;;;;18.62;100.00;102304.81;5034671;28;72813;-72
2022/10/18 07:02:17;;;;;;;;;15.33;15.33;;;;;18.66;100.00;102300.34;5035208;28;45400;-71
2022/10/18 07:04:42;;;;;;;;;13.33;12.67;;;;;18.69;100.00;102317.31;5035868;28;45758;-71
2022/10/18 07:07:07;;;;;;;;;19.33;15.00;;;;;18.72;100.00;102317.34;5038775;28;45506;-73
2022/10/18 07:09:33;;;;;;;;;19.00;17.00;;;;;18.76;100.00;102304.88;5032873;28;66315;-72
2022/10/18 07:11:58;;;;;;;;;20.33;16.67;;;;;18.78;100.00;102306.63;5030478;28;63544;-71
2022/10/18 07:14:23;;;;;;;;;15.33;14.67;;;;;18.82;100.00;102310.22;5033372;28;57766;-73
2022/10/18 07:16:49;;;;;;;;;15.00;15.00;;;;;18.85;100.00;102315.56;5034264;28;62406;-71
2022/10/18 07:19:15;;;;;;;;;20.00;15.67;;;;;18.90;100.00;102318.22;5034452;28;49566;-72
2022/10/18 07:21:40;;;;;;;;;15.00;14.67;;;;;18.95;100.00;102316.44;5034847;28;45933;-72
2022/10/18 07:24:05;;;;;;;;;15.00;15.00;;;;;18.97;100.00;102323.59;5034350;28;45671;-72
2022/10/18 07:26:32;;;;;;;;;17.67;15.00;;;;;19.02;100.00;102326.28;5035270;28;56284;-72
2022/10/18 07:29:07;;;;;;;;;14.67;14.67;;;;;19.07;100.00;102330.75;5030881;28;46588;-71
2022/10/18 07:31:33;;;;;;;;;15.33;15.33;;;;;19.14;100.00;102326.28;5034534;28;45493;-71
2022/10/18 07:33:58;;;;;;;;;17.00;17.00;;;;;19.19;100.00;102329.84;5034894;28;45340;-73
2022/10/18 07:36:25;;;;;;;;;21.33;16.67;;;;;19.26;100.00;102334.28;5033421;28;57523;-70
2022/10/18 07:38:51;;;;;;;;;14.67;14.67;;;;;19.32;100.00;102336.06;5018107;28;46511;-71
2022/10/18 07:41:17;;;;;;;;;13.00;12.00;;;;;19.35;100.00;102331.59;5032855;28;45542;-72
2022/10/18 07:43:45;;;;;;;;;13.00;12.67;;;;;19.39;100.00;102340.53;5033548;28;45705;-71
2022/10/18 07:46:11;;;;;;;;;14.33;11.67;;;;;19.40;100.00;102345.00;5033694;28;45502;-72
2022/10/18 07:48:36;;;;;;;;;17.00;14.33;;;;;19.41;100.00;102349.47;5032672;28;45714;-73
2022/10/18 07:51:03;;;;;;;;;13.33;13.33;;;;;19.44;100.00;102351.22;5032936;28;63596;-69
2022/10/18 07:53:29;;;;;;;;;14.33;13.67;;;;;19.44;100.00;102361.94;5034256;28;45326;-70
2022/10/18 07:55:58;;;;;;;;;16.00;15.00;;;;;19.46;100.00;102354.81;5035382;28;45471;-69
2022/10/18 07:58:24;;;;;;;;;17.00;16.33;;;;;19.48;100.00;102358.38;5033769;28;46647;-69
2022/10/18 08:00:49;;;;;;;;;13.00;13.00;;;;;19.50;100.00;102361.97;5034360;28;45398;-70
2022/10/18 08:03:14;;;;;;;;;17.33;15.00;;;;;19.55;100.00;102365.53;5033938;28;64792;-70
2022/10/18 08:05:40;;;;;;;;;22.00;19.67;;;;;19.56;100.00;102360.16;5033556;28;45461;-70
2022/10/18 08:08:05;;;;;;;;;16.00;14.33;;;;;19.54;100.00;102364.59;5032954;28;49273;-70
2022/10/18 08:10:30;;;;;;;;;15.00;11.67;;;;;19.54;100.00;102369.97;5032520;28;45306;-71
2022/10/18 08:12:56;;;;;;;;;19.00;19.00;;;;;19.53;100.00;102381.59;5032564;28;64732;-70
2022/10/18 08:15:23;;;;;;;;;19.67;19.33;;;;;19.55;100.00;102382.50;5033612;28;62612;-70
2022/10/18 08:17:49;;;;;;;;;25.67;20.33;;;;;19.58;100.00;102386.94;5034338;28;45502;-70
2022/10/18 08:20:14;;;;;;;;;26.67;26.33;;;;;19.59;100.00;102380.72;5033271;28;45448;-71
2022/10/18 08:22:40;;;;;;;;;20.67;19.33;;;;;19.63;100.00;102383.38;5034180;28;45459;-70
2022/10/18 08:25:05;;;;;;;;;23.67;20.00;;;;;19.66;100.00;102389.66;5033947;28;54619;-71
2022/10/18 08:27:31;;;;;;;;;19.67;17.33;;;;;19.71;100.00;102396.78;5036309;28;45583;-70
2022/10/18 08:29:58;;;;;;;;;14.67;14.00;;;;;19.78;100.00;102394.97;5033296;28;55444;-70
2022/10/18 08:32:24;;;;;;;;;25.67;22.33;;;;;19.84;100.00;102389.59;5033184;28;45475;-71
2022/10/18 08:34:50;;;;;;;;;27.67;25.33;;;;;19.88;100.00;102399.44;5032484;28;47666;-70
2022/10/18 08:37:15;;;;;;;;;27.00;25.33;;;;;19.94;100.00;102395.84;5038594;28;46706;-70
2022/10/18 08:39:40;;;;;;;;;8.67;6.00;;;;;19.98;100.00;102390.47;5030116;28;45774;-70
2022/10/18 08:42:48;;;;;;;;;25.00;21.33;;;;;19.99;100.00;102396.72;5036345;28;58608;-69
2022/10/18 08:45:14;;;;;;;;;14.67;13.67;;;;;19.98;100.00;102398.50;5032272;28;46044;-70
2022/10/18 08:47:42;;;;;;;;;16.00;14.33;;;;;19.99;100.00;102400.28;5019308;28;71211;-71
2022/10/18 08:50:24;;;;;;;;;15.33;13.33;;;;;19.99;100.00;102397.59;5023605;28;45478;-71
2022/10/18 08:53:01;;;;;;;;;15.67;13.00;;;;;20.02;100.00;102394.91;5020125;28;45475;-70
2022/10/18 08:55:39;;;;;;;;;18.00;14.67;;;;;20.08;100.00;102397.59;5017011;28;45642;-70
2022/10/18 08:58:16;;;;;;;;;12.33;11.67;;;;;20.11;100.00;102399.34;5027032;28;46628;-71
2022/10/18 09:00:48;;;;;;;;;12.00;10.00;;;;;20.13;100.00;102389.50;5022756;28;45803;-70
2022/10/18 09:03:19;;;;;;;;;18.67;11.00;;;;;20.15;100.00;102387.72;5022950;28;45556;-71
2022/10/18 09:05:54;;;;;;;;;9.67;9.67;;;;;20.19;100.00;102389.50;5037154;28;45614;-70
2022/10/18 09:08:28;;;;;;;;;15.00;13.33;;;;;20.23;100.00;102385.88;5027784;28;46618;-71
2022/10/18 09:11:13;;;;;;;;;14.00;13.00;;;;;20.27;100.00;102393.03;5035122;28;45385;-70
2022/10/18 09:13:51;;;;;;;;;15.67;14.00;;;;;20.32;100.00;102387.66;5037442;28;45435;-72
2022/10/18 09:16:23;;;;;;;;;13.00;13.00;;;;;20.35;100.00;102393.91;5027879;28;45239;-72
2022/10/18 09:19:11;;;;;;;;;14.33;11.00;;;;;20.40;100.00;102386.72;5022649;28;47728;-73
2022/10/18 09:22:01;;;;;;;;;14.67;11.00;;;;;20.46;100.00;102383.16;5026173;28;45648;-72
2022/10/18 09:24:33;;;;;;;;;15.00;14.00;;;;;20.47;100.00;102381.34;5034696;28;45480;-73
2022/10/18 09:27:19;;;;;;;;;13.00;11.33;;;;;20.48;100.00;102391.19;5034512;28;45562;-72
2022/10/18 09:30:03;;;;;;;;;12.67;11.33;;;;;20.47;100.00;102384.94;5036068;28;46598;-72
2022/10/18 09:32:50;;;;;;;;;11.33;10.33;;;;;20.51;100.00;102394.75;5035901;28;45358;-72
2022/10/18 09:35:20;;;;;;;;;11.67;9.00;;;;;20.56;100.00;102386.66;5021499;28;45281;-74
2022/10/18 09:37:46;;;;;;;;;20.67;12.67;;;;;20.56;100.00;102382.22;5035099;28;46939;-74
2022/10/18 09:40:19;;;;;;;;;9.00;9.00;;;;;20.57;100.00;102383.09;5034202;28;63236;-72
2022/10/18 09:43:11;;;;;;;;;13.33;11.00;;;;;20.52;100.00;102377.75;5030915;28;45570;-73
2022/10/18 09:45:40;;;;;;;;;15.00;13.00;;;;;20.52;100.00;102384.91;5024862;28;45238;-72
2022/10/18 09:48:13;;;;;;;;;11.33;7.00;;;;;20.56;100.00;102381.28;5036515;28;45531;-73
2022/10/18 09:50:42;;;;;;;;;9.67;8.00;;;;;20.61;100.00;102385.75;5036096;28;47436;-72
2022/10/18 09:53:14;;;;;;;;;8.00;7.33;;;;;20.68;100.00;102391.97;5023205;28;45432;-72
2022/10/18 09:55:59;;;;;;;;;10.00;8.00;;;;;20.75;100.00;102391.03;5036152;28;45234;-73
2022/10/18 09:58:30;;;;;;;;;12.33;10.00;;;;;20.81;100.00;102387.41;5026170;28;45667;-73
2022/10/18 10:00:55;;;;;;;;;12.00;12.00;;;;;20.85;100.00;102387.38;5018108;28;46544;-72
2022/10/18 10:03:20;;;;;;;;;12.33;11.00;;;;;20.96;100.00;102391.78;5028799;28;45526;-72
2022/10/18 10:05:46;;;;;;;;;11.33;11.33;;;;;21.01;100.00;102381.91;5032958;28;45464;-72
2022/10/18 10:08:11;;;;;;;;;11.33;10.00;;;;;21.12;100.00;102390.75;5034310;28;45451;-72
2022/10/18 10:10:46;;;;;;;;;8.33;8.00;;;;;21.14;100.00;102381.78;5020080;28;46346;-73
2022/10/18 10:13:23;;;;;;;;;12.67;10.00;;;;;21.20;100.00;102391.59;5035070;28;45382;-72
2022/10/18 10:16:01;;;;;;;;;9.67;9.67;;;;;21.24;100.00;102387.97;5032892;28;45425;-74
2022/10/18 10:18:31;;;;;;;;;8.67;8.67;;;;;21.27;100.00;102390.66;5032013;28;45529;-72
2022/10/18 10:20:59;;;;;;;;;13.00;9.33;;;;;21.30;100.00;102390.63;5031425;28;45671;-73
2022/10/18 10:23:25;;;;;;;;;8.00;8.00;;;;;21.34;100.00;102394.19;5033951;28;45492;-72
2022/10/18 10:25:53;;;;;;;;;12.67;9.00;;;;;21.38;100.00;102396.84;5039896;28;45513;-74
2022/10/18 10:28:22;;;;;;;;;9.67;8.67;;;;;21.43;100.00;102392.31;5037742;28;45534;-72
2022/10/18 10:30:47;;;;;;;;;8.00;8.00;;;;;21.44;100.00;102391.41;5035432;28;46427;-72
2022/10/18 10:33:31;;;;;;;;;9.00;7.33;;;;;21.48;100.00;102399.47;5017693;28;45495;-71
2022/10/18 10:35:58;;;;;;;;;11.00;10.00;;;;;21.49;100.00;102393.16;5036270;28;45548;-72
2022/10/18 10:38:26;;;;;;;;;11.67;9.00;;;;;21.53;100.00;102395.81;5038545;28;45415;-73
2022/10/18 10:40:51;;;;;;;;;10.00;9.00;;;;;21.53;100.00;102393.13;5041446;28;46376;-73
2022/10/18 10:43:29;;;;;;;;;11.00;10.00;;;;;21.53;100.00;102398.50;5024195;28;63148;-71
2022/10/18 10:45:57;;;;;;;;;9.00;9.00;;;;;21.52;100.00;102393.13;5024890;28;47065;-71
2022/10/18 10:48:23;;;;;;;;;9.67;7.00;;;;;21.46;100.00;102386.00;5035790;28;46218;-72
2022/10/18 10:51:09;;;;;;;;;13.33;10.00;;;;;21.44;100.00;102386.03;5035168;28;45770;-74
2022/10/18 10:53:46;;;;;;;;;12.00;11.00;;;;;21.46;100.00;102388.69;5042515;28;45403;-71
2022/10/18 10:56:20;;;;;;;;;11.67;9.33;;;;;21.50;100.00;102389.56;5039445;28;45460;-72
2022/10/18 10:58:45;;;;;;;;;8.00;8.00;;;;;21.57;100.00;102388.59;5020911;28;45363;-75
2022/10/18 11:01:31;;;;;;;;;8.67;7.67;;;;;21.63;100.00;102378.69;5038960;28;46932;-72
2022/10/18 11:04:00;;;;;;;;;7.00;7.00;;;;;21.68;100.00;102376.84;5037043;28;45222;-72
2022/10/18 11:06:35;;;;;;;;;8.00;7.00;;;;;21.78;100.00;102376.72;5020359;28;47342;-73
2022/10/18 11:09:09;;;;;;;;;6.00;6.00;;;;;21.84;100.00;102374.88;5024408;28;45453;-74
2022/10/18 11:11:39;;;;;;;;;8.67;8.00;;;;;21.91;100.00;102371.22;5026989;28;45728;-72